ADDS METAR Data INFO
IDs: Format: Raw Decoded Include TAF

Data at: 1042 UTC 19 Oct 2017

KLPC 190956Z AUTO 33009KT 10SM OVC008 13/11 A3000 RMK AO2 SLP162 T01280111
KLPC 190856Z AUTO 29009KT 10SM OVC008 13/11 A3000 RMK AO2 SLP162 T01280111 55003
KLPC 190756Z AUTO 30004KT 10SM OVC008 13/12 A2999 RMK AO2 SLP159 T01330117 401940128
KLPC 190656Z AUTO 04003KT 10SM OVC008 13/12 A2999 RMK AO2 SLP158 T01280117
KLPC 190556Z AUTO 33005KT 10SM OVC008 14/12 A3001 RMK AO2 SLP166 T01390117 10172 20128 51007
KLPC 190456Z AUTO 00000KT 10SM OVC008 13/12 A3001 RMK AO2 SLP165 T01280117
KLPC 190356Z AUTO 27006KT 10SM OVC008 13/12 A3000 RMK AO2 SLP162 T01330122
KLPC 190310Z AUTO 28005KT 10SM OVC008 13/12 A2999 RMK AO2
KLPC 190156Z AUTO 29008KT 10SM OVC010 14/12 A3000 RMK AO2 SLP161 T01440122 TSNO
KLPC 190119Z AUTO 28008KT 10SM BKN012 14/12 A2999 RMK AO2
KLPC 190056Z AUTO 29010KT 10SM CLR 15/12 A2999 RMK AO2 SLP158 T01500122
KLPC 182356Z AUTO 29012KT 10SM CLR 17/12 A2998 RMK AO2 SLP156 T01720122 10194 20172 58008
KLPC 182256Z AUTO 28015G21KT 10SM CLR 17/13 A3000 RMK AO2 SLP161 T01720128
KLPC 182156Z AUTO 27016KT 10SM CLR 18/13 A3000 RMK AO2 SLP161 T01830128
KLPC 182056Z AUTO 26015KT 10SM CLR 18/13 A3000 RMK AO2 SLP164 T01830128 58010 TSNO
KLPC 181956Z AUTO 26013KT 10SM CLR 18/13 A3003 RMK AO2 SLP171 T01830133
KLPC 181856Z AUTO 26014G19KT 10SM CLR 19/14 A3003 RMK AO2 SLP173 T01890139
KLPC 181756Z AUTO 26012KT 9SM CLR 18/14 A3003 RMK AO2 SLP174 T01830139 10183 20139 51007
KLPC 181704Z AUTO 26006KT 10SM FEW009 17/14 A3003 RMK AO2
KLPC 181656Z AUTO 28006KT 10SM BKN009 17/14 A3003 RMK AO2 SLP172 T01670139
KLPC 181556Z AUTO 27004KT 9SM OVC009 16/14 A3003 RMK AO2 SLP171 T01610139
KLPC 181456Z AUTO 30003KT 7SM BKN009 14/13 A3001 RMK AO2 SLP167 T01440133 53013
KLPC 181426Z AUTO 28006KT 8SM BKN009 14/13 A3001 RMK AO2
KLPC 181414Z AUTO 29005KT 8SM SCT009 14/13 A3000 RMK AO2
KLPC 181356Z AUTO 00000KT 9SM CLR 14/13 A2999 RMK AO2 SLP160 T01440133
KLPC 181256Z AUTO 27006KT 10SM CLR 14/13 A2999 RMK AO2 SLP160 T01440128 TSNO
KLPC 181156Z AUTO 28006KT 10SM CLR 15/13 A2998 RMK AO2 SLP154 T01500128 10161 20139 58004
KLPC 181056Z AUTO 27005KT 10SM OVC120 16/13 A2999 RMK AO2 SLP158 T01610133
KLPC 180956Z AUTO 30004KT 9SM CLR 16/14 A2998 RMK AO2 SLP155 T01560139
KLPC 180856Z AUTO 29005KT 10SM SCT120 16/14 A2999 RMK AO2 SLP158 T01610139 56003
KLPC 180756Z AUTO 27006KT 10SM CLR 16/14 A2999 RMK AO2 SLP159 T01610139 402560100
KLPC 180656Z AUTO 28004KT 10SM CLR 15/11 A2999 RMK AO2 SLP159 T01500111
KLPC 180556Z AUTO 00000KT 10SM CLR 13/10 A3000 RMK AO2 SLP161 T01330100 10200 20133 55002
KLPC 180456Z AUTO 00000KT 10SM CLR 16/11 A2999 RMK AO2 SLP160 T01560111
KLPC 180356Z AUTO 00000KT 10SM CLR 17/12 A2999 RMK AO2 SLP160 T01670117
KLPC 180256Z AUTO 01003KT 10SM OVC110 18/12 A3000 RMK AO2 SLP163 T01780122 56007
KLPC 180156Z AUTO 00000KT 10SM SCT120 18/12 A3001 RMK AO2 SLP165 T01830122
KLPC 180056Z AUTO 24003KT 10SM CLR 18/13 A3000 RMK AO2 SLP164 T01830128
KLPC 172356Z AUTO 26008KT 10SM SCT110 19/13 A3002 RMK AO2 SLP171 T01940133 10256 20189 56008
KLPC 172256Z AUTO 26012G18KT 10SM CLR 19/14 A3003 RMK AO2 SLP174 T01940144